sensor_id;sensor_type;location;lat;lon;timestamp;temperature;humidity
67641;SHT31;54434;50.096;20.082;2023-07-28T00:01:53;15.74;69.37
67641;SHT31;54434;50.096;20.082;2023-07-28T00:04:29;15.78;68.84
67641;SHT31;54434;50.096;20.082;2023-07-28T00:07:07;15.82;68.54
67641;SHT31;54434;50.096;20.082;2023-07-28T00:09:43;15.84;68.35
67641;SHT31;54434;50.096;20.082;2023-07-28T00:12:19;15.87;68.16
67641;SHT31;54434;50.096;20.082;2023-07-28T00:14:56;15.91;67.98
67641;SHT31;54434;50.096;20.082;2023-07-28T00:17:33;15.93;67.60
67641;SHT31;54434;50.096;20.082;2023-07-28T00:20:11;15.99;66.86
67641;SHT31;54434;50.096;20.082;2023-07-28T00:22:47;16.03;66.52
67641;SHT31;54434;50.096;20.082;2023-07-28T00:25:24;16.09;66.06
67641;SHT31;54434;50.096;20.082;2023-07-28T00:28:00;16.13;65.78
67641;SHT31;54434;50.096;20.082;2023-07-28T00:30:36;16.17;65.26
67641;SHT31;54434;50.096;20.082;2023-07-28T00:33:13;16.24;65.02
67641;SHT31;54434;50.096;20.082;2023-07-28T00:35:50;16.28;64.93
67641;SHT31;54434;50.096;20.082;2023-07-28T00:38:26;16.32;64.64
67641;SHT31;54434;50.096;20.082;2023-07-28T00:41:02;16.36;64.26
67641;SHT31;54434;50.096;20.082;2023-07-28T00:43:38;16.40;64.07
67641;SHT31;54434;50.096;20.082;2023-07-28T00:46:15;16.44;63.82
67641;SHT31;54434;50.096;20.082;2023-07-28T00:48:51;16.49;63.59
67641;SHT31;54434;50.096;20.082;2023-07-28T00:51:29;16.52;63.21
67641;SHT31;54434;50.096;20.082;2023-07-28T00:54:06;16.55;62.95
67641;SHT31;54434;50.096;20.082;2023-07-28T00:56:43;16.58;62.74
67641;SHT31;54434;50.096;20.082;2023-07-28T00:59:21;16.61;62.55
67641;SHT31;54434;50.096;20.082;2023-07-28T01:01:57;16.63;62.46
67641;SHT31;54434;50.096;20.082;2023-07-28T01:04:34;16.65;62.12
67641;SHT31;54434;50.096;20.082;2023-07-28T01:07:15;16.68;62.10
67641;SHT31;54434;50.096;20.082;2023-07-28T01:10:05;16.69;62.11
67641;SHT31;54434;50.096;20.082;2023-07-28T01:12:47;16.71;61.89
67641;SHT31;54434;50.096;20.082;2023-07-28T01:15:23;16.75;61.67
67641;SHT31;54434;50.096;20.082;2023-07-28T01:18:00;16.77;61.75
67641;SHT31;54434;50.096;20.082;2023-07-28T01:20:36;16.78;61.61
67641;SHT31;54434;50.096;20.082;2023-07-28T01:23:20;16.80;61.45
67641;SHT31;54434;50.096;20.082;2023-07-28T01:26:11;16.84;61.37
67641;SHT31;54434;50.096;20.082;2023-07-28T01:28:50;16.85;61.34
67641;SHT31;54434;50.096;20.082;2023-07-28T01:31:28;16.89;61.09
67641;SHT31;54434;50.096;20.082;2023-07-28T01:34:05;16.91;61.04
67641;SHT31;54434;50.096;20.082;2023-07-28T01:36:41;16.95;60.87
67641;SHT31;54434;50.096;20.082;2023-07-28T01:39:17;16.98;60.60
67641;SHT31;54434;50.096;20.082;2023-07-28T01:41:54;17.03;60.41
67641;SHT31;54434;50.096;20.082;2023-07-28T01:44:30;17.05;60.62
67641;SHT31;54434;50.096;20.082;2023-07-28T01:47:07;17.06;60.60
67641;SHT31;54434;50.096;20.082;2023-07-28T01:49:43;17.08;60.45
67641;SHT31;54434;50.096;20.082;2023-07-28T01:52:19;17.09;60.63
67641;SHT31;54434;50.096;20.082;2023-07-28T01:54:56;17.11;60.69
67641;SHT31;54434;50.096;20.082;2023-07-28T01:57:33;17.12;60.79
67641;SHT31;54434;50.096;20.082;2023-07-28T02:00:14;17.13;60.79
67641;SHT31;54434;50.096;20.082;2023-07-28T02:02:52;17.13;60.72
67641;SHT31;54434;50.096;20.082;2023-07-28T02:05:30;17.13;60.57
67641;SHT31;54434;50.096;20.082;2023-07-28T02:08:07;17.14;60.60
67641;SHT31;54434;50.096;20.082;2023-07-28T02:10:44;17.14;60.65
67641;SHT31;54434;50.096;20.082;2023-07-28T02:13:20;17.13;60.85
67641;SHT31;54434;50.096;20.082;2023-07-28T02:15:57;17.13;60.95
67641;SHT31;54434;50.096;20.082;2023-07-28T02:18:33;17.12;60.92
67641;SHT31;54434;50.096;20.082;2023-07-28T02:21:10;17.12;60.82
67641;SHT31;54434;50.096;20.082;2023-07-28T02:23:48;17.14;61.03
67641;SHT31;54434;50.096;20.082;2023-07-28T02:26:24;17.14;60.83
67641;SHT31;54434;50.096;20.082;2023-07-28T02:29:00;17.15;61.02
67641;SHT31;54434;50.096;20.082;2023-07-28T02:31:37;17.13;61.68
67641;SHT31;54434;50.096;20.082;2023-07-28T02:34:13;17.13;61.18
67641;SHT31;54434;50.096;20.082;2023-07-28T02:36:49;17.11;61.85
67641;SHT31;54434;50.096;20.082;2023-07-28T02:39:26;17.10;61.88
67641;SHT31;54434;50.096;20.082;2023-07-28T02:42:02;17.10;61.38
67641;SHT31;54434;50.096;20.082;2023-07-28T02:44:40;17.11;61.24
67641;SHT31;54434;50.096;20.082;2023-07-28T02:47:16;17.12;61.36
67641;SHT31;54434;50.096;20.082;2023-07-28T02:49:53;17.13;61.31
67641;SHT31;54434;50.096;20.082;2023-07-28T02:52:30;17.13;61.54
67641;SHT31;54434;50.096;20.082;2023-07-28T02:55:07;17.11;63.09
67641;SHT31;54434;50.096;20.082;2023-07-28T02:57:44;17.07;64.13
67641;SHT31;54434;50.096;20.082;2023-07-28T03:00:20;17.05;64.99
67641;SHT31;54434;50.096;20.082;2023-07-28T03:02:57;17.02;64.90
67641;SHT31;54434;50.096;20.082;2023-07-28T03:05:34;17.00;64.43
67641;SHT31;54434;50.096;20.082;2023-07-28T03:08:27;16.98;64.37
67641;SHT31;54434;50.096;20.082;2023-07-28T03:11:22;16.95;64.02
67641;SHT31;54434;50.096;20.082;2023-07-28T03:13:58;16.94;64.26
67641;SHT31;54434;50.096;20.082;2023-07-28T03:16:34;16.92;65.01
67641;SHT31;54434;50.096;20.082;2023-07-28T03:19:11;16.90;65.20
67641;SHT31;54434;50.096;20.082;2023-07-28T03:21:47;16.89;64.67
67641;SHT31;54434;50.096;20.082;2023-07-28T03:24:24;16.86;64.96
67641;SHT31;54434;50.096;20.082;2023-07-28T03:27:00;16.86;64.59
67641;SHT31;54434;50.096;20.082;2023-07-28T03:29:38;16.87;64.99
67641;SHT31;54434;50.096;20.082;2023-07-28T03:32:14;16.86;65.69
67641;SHT31;54434;50.096;20.082;2023-07-28T03:34:51;16.86;65.21
67641;SHT31;54434;50.096;20.082;2023-07-28T03:37:27;16.86;64.69
67641;SHT31;54434;50.096;20.082;2023-07-28T03:40:05;16.87;64.52
67641;SHT31;54434;50.096;20.082;2023-07-28T03:42:54;16.88;64.47
67641;SHT31;54434;50.096;20.082;2023-07-28T03:45:31;16.92;63.74
67641;SHT31;54434;50.096;20.082;2023-07-28T03:48:08;16.95;63.58
67641;SHT31;54434;50.096;20.082;2023-07-28T03:50:44;16.98;63.71
67641;SHT31;54434;50.096;20.082;2023-07-28T03:53:20;17.00;63.62
67641;SHT31;54434;50.096;20.082;2023-07-28T03:55:57;17.03;64.10
67641;SHT31;54434;50.096;20.082;2023-07-28T03:58:33;17.05;64.03
67641;SHT31;54434;50.096;20.082;2023-07-28T04:01:10;17.07;63.16
67641;SHT31;54434;50.096;20.082;2023-07-28T04:03:46;17.10;65.31
67641;SHT31;54434;50.096;20.082;2023-07-28T04:06:43;17.11;65.09
67641;SHT31;54434;50.096;20.082;2023-07-28T04:09:37;17.13;64.03
67641;SHT31;54434;50.096;20.082;2023-07-28T04:12:15;17.16;64.56
67641;SHT31;54434;50.096;20.082;2023-07-28T04:14:52;17.17;65.16
67641;SHT31;54434;50.096;20.082;2023-07-28T04:17:29;17.21;63.75
67641;SHT31;54434;50.096;20.082;2023-07-28T04:20:07;17.26;63.06
67641;SHT31;54434;50.096;20.082;2023-07-28T04:22:45;17.30;63.15
67641;SHT31;54434;50.096;20.082;2023-07-28T04:25:21;17.36;63.04
67641;SHT31;54434;50.096;20.082;2023-07-28T04:27:58;17.40;62.89
67641;SHT31;54434;50.096;20.082;2023-07-28T04:30:34;17.44;62.64
67641;SHT31;54434;50.096;20.082;2023-07-28T04:33:18;17.49;62.71
67641;SHT31;54434;50.096;20.082;2023-07-28T04:35:54;17.55;62.83
67641;SHT31;54434;50.096;20.082;2023-07-28T04:38:38;17.60;62.34
67641;SHT31;54434;50.096;20.082;2023-07-28T04:41:14;17.65;62.59
67641;SHT31;54434;50.096;20.082;2023-07-28T04:43:54;17.70;62.98
67641;SHT31;54434;50.096;20.082;2023-07-28T04:46:32;17.75;62.63
67641;SHT31;54434;50.096;20.082;2023-07-28T04:49:10;17.82;62.90
67641;SHT31;54434;50.096;20.082;2023-07-28T04:52:07;17.88;62.67
67641;SHT31;54434;50.096;20.082;2023-07-28T04:55:30;17.95;62.26
67641;SHT31;54434;50.096;20.082;2023-07-28T04:58:06;18.01;62.70
67641;SHT31;54434;50.096;20.082;2023-07-28T05:00:51;18.05;62.91
67641;SHT31;54434;50.096;20.082;2023-07-28T05:03:28;18.07;62.67
67641;SHT31;54434;50.096;20.082;2023-07-28T05:06:16;18.10;62.18
67641;SHT31;54434;50.096;20.082;2023-07-28T05:08:53;18.14;63.05
67641;SHT31;54434;50.096;20.082;2023-07-28T05:11:48;18.17;62.85
67641;SHT31;54434;50.096;20.082;2023-07-28T05:14:25;18.21;62.26
67641;SHT31;54434;50.096;20.082;2023-07-28T05:17:01;18.26;62.20
67641;SHT31;54434;50.096;20.082;2023-07-28T05:19:56;18.31;62.04
67641;SHT31;54434;50.096;20.082;2023-07-28T05:22:42;18.35;61.77
67641;SHT31;54434;50.096;20.082;2023-07-28T05:25:18;18.39;61.89
67641;SHT31;54434;50.096;20.082;2023-07-28T05:27:56;18.43;61.51
67641;SHT31;54434;50.096;20.082;2023-07-28T05:30:33;18.49;61.77
67641;SHT31;54434;50.096;20.082;2023-07-28T05:33:10;18.54;61.93
67641;SHT31;54434;50.096;20.082;2023-07-28T05:36:01;18.59;62.41
67641;SHT31;54434;50.096;20.082;2023-07-28T05:38:38;18.62;61.80
67641;SHT31;54434;50.096;20.082;2023-07-28T05:41:14;18.66;61.45
67641;SHT31;54434;50.096;20.082;2023-07-28T05:43:51;18.70;61.22
67641;SHT31;54434;50.096;20.082;2023-07-28T05:46:28;18.72;61.43
67641;SHT31;54434;50.096;20.082;2023-07-28T05:49:04;18.76;61.42
67641;SHT31;54434;50.096;20.082;2023-07-28T05:51:40;18.81;61.67
67641;SHT31;54434;50.096;20.082;2023-07-28T05:54:17;18.85;62.04
67641;SHT31;54434;50.096;20.082;2023-07-28T05:56:54;18.89;62.15
67641;SHT31;54434;50.096;20.082;2023-07-28T05:59:30;18.92;62.46
67641;SHT31;54434;50.096;20.082;2023-07-28T06:02:07;18.95;62.89
67641;SHT31;54434;50.096;20.082;2023-07-28T06:04:51;19.00;62.31
67641;SHT31;54434;50.096;20.082;2023-07-28T06:07:27;19.04;62.12
67641;SHT31;54434;50.096;20.082;2023-07-28T06:10:06;19.09;61.89
67641;SHT31;54434;50.096;20.082;2023-07-28T06:12:43;19.11;61.53
67641;SHT31;54434;50.096;20.082;2023-07-28T06:15:20;19.14;61.40
67641;SHT31;54434;50.096;20.082;2023-07-28T06:17:56;19.19;61.81
67641;SHT31;54434;50.096;20.082;2023-07-28T06:20:33;19.21;61.58
67641;SHT31;54434;50.096;20.082;2023-07-28T06:23:10;19.24;61.61
67641;SHT31;54434;50.096;20.082;2023-07-28T06:25:46;19.29;61.29
67641;SHT31;54434;50.096;20.082;2023-07-28T06:28:23;19.32;61.28
67641;SHT31;54434;50.096;20.082;2023-07-28T06:31:00;19.38;61.59
67641;SHT31;54434;50.096;20.082;2023-07-28T06:33:38;19.46;61.85
67641;SHT31;54434;50.096;20.082;2023-07-28T06:36:14;19.52;61.89
67641;SHT31;54434;50.096;20.082;2023-07-28T06:38:52;19.57;61.91
67641;SHT31;54434;50.096;20.082;2023-07-28T06:41:29;19.61;62.00
67641;SHT31;54434;50.096;20.082;2023-07-28T06:44:11;19.65;61.82
67641;SHT31;54434;50.096;20.082;2023-07-28T06:46:48;19.68;61.58
67641;SHT31;54434;50.096;20.082;2023-07-28T06:49:25;19.72;61.74
67641;SHT31;54434;50.096;20.082;2023-07-28T06:52:01;19.76;61.70
67641;SHT31;54434;50.096;20.082;2023-07-28T06:54:39;19.79;61.64
67641;SHT31;54434;50.096;20.082;2023-07-28T06:57:15;19.80;62.06
67641;SHT31;54434;50.096;20.082;2023-07-28T06:59:52;19.77;62.17
67641;SHT31;54434;50.096;20.082;2023-07-28T07:02:29;19.70;62.02
67641;SHT31;54434;50.096;20.082;2023-07-28T07:05:07;19.68;62.36
67641;SHT31;54434;50.096;20.082;2023-07-28T07:07:43;19.69;62.45
67641;SHT31;54434;50.096;20.082;2023-07-28T07:10:20;19.68;62.38
67641;SHT31;54434;50.096;20.082;2023-07-28T07:12:57;19.66;62.23
67641;SHT31;54434;50.096;20.082;2023-07-28T07:15:36;19.66;62.27
67641;SHT31;54434;50.096;20.082;2023-07-28T07:18:14;19.69;62.07
67641;SHT31;54434;50.096;20.082;2023-07-28T07:20:50;19.70;62.01
67641;SHT31;54434;50.096;20.082;2023-07-28T07:23:26;19.67;62.27
67641;SHT31;54434;50.096;20.082;2023-07-28T07:26:03;19.68;62.10
67641;SHT31;54434;50.096;20.082;2023-07-28T07:28:42;19.65;62.29
67641;SHT31;54434;50.096;20.082;2023-07-28T07:31:19;19.63;62.50
67641;SHT31;54434;50.096;20.082;2023-07-28T07:33:55;19.61;62.56
67641;SHT31;54434;50.096;20.082;2023-07-28T07:36:32;19.57;62.87
67641;SHT31;54434;50.096;20.082;2023-07-28T07:39:08;19.54;63.45
67641;SHT31;54434;50.096;20.082;2023-07-28T07:41:44;19.51;64.11
67641;SHT31;54434;50.096;20.082;2023-07-28T07:44:21;19.52;64.37
67641;SHT31;54434;50.096;20.082;2023-07-28T07:47:00;19.57;64.49
67641;SHT31;54434;50.096;20.082;2023-07-28T07:49:47;19.51;64.77
67641;SHT31;54434;50.096;20.082;2023-07-28T07:52:24;19.49;64.80
67641;SHT31;54434;50.096;20.082;2023-07-28T07:55:01;19.47;64.79
67641;SHT31;54434;50.096;20.082;2023-07-28T07:57:38;19.43;65.08
67641;SHT31;54434;50.096;20.082;2023-07-28T08:00:16;19.37;65.42
67641;SHT31;54434;50.096;20.082;2023-07-28T08:02:54;19.36;65.65
67641;SHT31;54434;50.096;20.082;2023-07-28T08:05:30;19.36;65.84
67641;SHT31;54434;50.096;20.082;2023-07-28T08:08:08;19.35;66.11
67641;SHT31;54434;50.096;20.082;2023-07-28T08:10:46;19.35;66.12
67641;SHT31;54434;50.096;20.082;2023-07-28T08:13:24;19.38;66.49
67641;SHT31;54434;50.096;20.082;2023-07-28T08:16:00;19.41;66.62
67641;SHT31;54434;50.096;20.082;2023-07-28T08:18:37;19.45;67.03
67641;SHT31;54434;50.096;20.082;2023-07-28T08:21:13;19.47;66.60
67641;SHT31;54434;50.096;20.082;2023-07-28T08:23:50;19.49;66.89
67641;SHT31;54434;50.096;20.082;2023-07-28T08:26:26;19.54;66.99
67641;SHT31;54434;50.096;20.082;2023-07-28T08:29:03;19.62;67.19
67641;SHT31;54434;50.096;20.082;2023-07-28T08:31:39;19.72;67.77
67641;SHT31;54434;50.096;20.082;2023-07-28T08:34:15;19.81;67.80
67641;SHT31;54434;50.096;20.082;2023-07-28T08:36:52;19.94;67.59
67641;SHT31;54434;50.096;20.082;2023-07-28T08:39:28;20.09;67.35
67641;SHT31;54434;50.096;20.082;2023-07-28T08:42:06;20.25;66.89
67641;SHT31;54434;50.096;20.082;2023-07-28T08:44:43;20.43;66.81
67641;SHT31;54434;50.096;20.082;2023-07-28T08:47:20;20.53;66.48
67641;SHT31;54434;50.096;20.082;2023-07-28T08:49:56;20.67;65.97
67641;SHT31;54434;50.096;20.082;2023-07-28T08:52:33;20.84;66.18
67641;SHT31;54434;50.096;20.082;2023-07-28T08:55:10;21.02;65.65
67641;SHT31;54434;50.096;20.082;2023-07-28T08:57:47;21.17;65.27
67641;SHT31;54434;50.096;20.082;2023-07-28T09:00:24;21.29;64.76
67641;SHT31;54434;50.096;20.082;2023-07-28T09:03:00;21.48;65.03
67641;SHT31;54434;50.096;20.082;2023-07-28T09:05:37;21.69;64.38
67641;SHT31;54434;50.096;20.082;2023-07-28T09:08:15;21.87;63.78
67641;SHT31;54434;50.096;20.082;2023-07-28T09:10:51;21.91;63.09
67641;SHT31;54434;50.096;20.082;2023-07-28T09:13:34;22.00;62.89
67641;SHT31;54434;50.096;20.082;2023-07-28T09:16:20;22.14;62.39
67641;SHT31;54434;50.096;20.082;2023-07-28T09:19:06;22.27;61.75
67641;SHT31;54434;50.096;20.082;2023-07-28T09:21:45;22.32;61.56
67641;SHT31;54434;50.096;20.082;2023-07-28T09:24:35;22.23;61.36
67641;SHT31;54434;50.096;20.082;2023-07-28T09:27:20;22.10;61.40
67641;SHT31;54434;50.096;20.082;2023-07-28T09:29:58;21.91;61.87
67641;SHT31;54434;50.096;20.082;2023-07-28T09:32:36;21.77;62.28
67641;SHT31;54434;50.096;20.082;2023-07-28T09:35:19;21.60;62.51
67641;SHT31;54434;50.096;20.082;2023-07-28T09:37:56;21.47;62.97
67641;SHT31;54434;50.096;20.082;2023-07-28T09:40:34;21.48;63.25
67641;SHT31;54434;50.096;20.082;2023-07-28T09:43:13;21.57;63.46
67641;SHT31;54434;50.096;20.082;2023-07-28T09:45:49;21.59;63.38
67641;SHT31;54434;50.096;20.082;2023-07-28T09:48:26;21.61;63.22
67641;SHT31;54434;50.096;20.082;2023-07-28T09:51:11;21.71;63.06
67641;SHT31;54434;50.096;20.082;2023-07-28T09:53:55;21.98;62.80
67641;SHT31;54434;50.096;20.082;2023-07-28T09:56:36;22.36;62.33
67641;SHT31;54434;50.096;20.082;2023-07-28T09:59:15;22.92;61.76
67641;SHT31;54434;50.096;20.082;2023-07-28T10:01:54;23.58;61.14
67641;SHT31;54434;50.096;20.082;2023-07-28T10:04:32;23.99;59.53
67641;SHT31;54434;50.096;20.082;2023-07-28T10:07:09;24.26;59.20
67641;SHT31;54434;50.096;20.082;2023-07-28T10:09:46;24.58;58.96
67641;SHT31;54434;50.096;20.082;2023-07-28T10:12:26;24.93;57.96
67641;SHT31;54434;50.096;20.082;2023-07-28T10:15:03;25.19;57.01
67641;SHT31;54434;50.096;20.082;2023-07-28T10:17:47;25.25;55.43
67641;SHT31;54434;50.096;20.082;2023-07-28T10:20:34;25.35;56.07
67641;SHT31;54434;50.096;20.082;2023-07-28T10:23:14;25.59;55.30
67641;SHT31;54434;50.096;20.082;2023-07-28T10:25:59;25.67;54.67
67641;SHT31;54434;50.096;20.082;2023-07-28T10:28:38;25.63;54.63
67641;SHT31;54434;50.096;20.082;2023-07-28T10:31:16;25.58;54.52
67641;SHT31;54434;50.096;20.082;2023-07-28T10:34:06;25.43;54.25
67641;SHT31;54434;50.096;20.082;2023-07-28T10:36:45;25.08;54.12
67641;SHT31;54434;50.096;20.082;2023-07-28T10:39:31;24.83;55.04
67641;SHT31;54434;50.096;20.082;2023-07-28T10:42:10;24.63;55.89
67641;SHT31;54434;50.096;20.082;2023-07-28T10:44:47;24.47;56.22
67641;SHT31;54434;50.096;20.082;2023-07-28T10:47:24;24.28;56.37
67641;SHT31;54434;50.096;20.082;2023-07-28T10:50:03;24.12;56.41
67641;SHT31;54434;50.096;20.082;2023-07-28T10:52:44;23.92;56.85
67641;SHT31;54434;50.096;20.082;2023-07-28T10:55:23;23.75;57.28
67641;SHT31;54434;50.096;20.082;2023-07-28T10:58:01;23.60;58.05
67641;SHT31;54434;50.096;20.082;2023-07-28T11:00:37;23.60;58.36
67641;SHT31;54434;50.096;20.082;2023-07-28T11:03:14;23.61;58.20
67641;SHT31;54434;50.096;20.082;2023-07-28T11:05:53;23.57;58.23
67641;SHT31;54434;50.096;20.082;2023-07-28T11:08:30;23.43;57.95
67641;SHT31;54434;50.096;20.082;2023-07-28T11:11:08;23.23;58.29
67641;SHT31;54434;50.096;20.082;2023-07-28T11:13:46;23.11;58.71
67641;SHT31;54434;50.096;20.082;2023-07-28T11:16:23;23.02;59.19
67641;SHT31;54434;50.096;20.082;2023-07-28T11:19:03;23.11;59.74
67641;SHT31;54434;50.096;20.082;2023-07-28T11:21:43;23.29;59.25
67641;SHT31;54434;50.096;20.082;2023-07-28T11:24:23;23.38;58.58
67641;SHT31;54434;50.096;20.082;2023-07-28T11:27:00;23.36;58.60
67641;SHT31;54434;50.096;20.082;2023-07-28T11:29:41;23.34;58.71
67641;SHT31;54434;50.096;20.082;2023-07-28T11:32:19;23.34;58.64
67641;SHT31;54434;50.096;20.082;2023-07-28T11:34:57;23.39;58.89
67641;SHT31;54434;50.096;20.082;2023-07-28T11:37:41;23.39;58.60
67641;SHT31;54434;50.096;20.082;2023-07-28T11:40:22;23.34;58.82
67641;SHT31;54434;50.096;20.082;2023-07-28T11:42:59;23.32;59.24
67641;SHT31;54434;50.096;20.082;2023-07-28T11:45:36;23.35;59.24
67641;SHT31;54434;50.096;20.082;2023-07-28T11:48:12;23.36;59.06
67641;SHT31;54434;50.096;20.082;2023-07-28T11:50:50;23.45;59.99
67641;SHT31;54434;50.096;20.082;2023-07-28T11:53:28;23.50;59.73
67641;SHT31;54434;50.096;20.082;2023-07-28T11:56:09;23.48;59.83
67641;SHT31;54434;50.096;20.082;2023-07-28T11:58:45;23.46;59.79
67641;SHT31;54434;50.096;20.082;2023-07-28T12:01:26;23.47;59.59
67641;SHT31;54434;50.096;20.082;2023-07-28T12:04:20;23.44;59.31
67641;SHT31;54434;50.096;20.082;2023-07-28T12:07:06;23.46;59.72
67641;SHT31;54434;50.096;20.082;2023-07-28T12:09:52;23.53;59.99
67641;SHT31;54434;50.096;20.082;2023-07-28T12:12:43;23.64;59.18
67641;SHT31;54434;50.096;20.082;2023-07-28T12:15:25;23.67;59.39
67641;SHT31;54434;50.096;20.082;2023-07-28T12:18:08;23.79;59.38
67641;SHT31;54434;50.096;20.082;2023-07-28T12:20:51;23.85;59.47
67641;SHT31;54434;50.096;20.082;2023-07-28T12:23:28;23.99;59.48
67641;SHT31;54434;50.096;20.082;2023-07-28T12:26:09;24.07;58.97
67641;SHT31;54434;50.096;20.082;2023-07-28T12:28:45;24.15;58.93
67641;SHT31;54434;50.096;20.082;2023-07-28T12:31:25;24.33;59.18
67641;SHT31;54434;50.096;20.082;2023-07-28T12:34:01;24.38;58.67
67641;SHT31;54434;50.096;20.082;2023-07-28T12:36:38;24.38;58.37
67641;SHT31;54434;50.096;20.082;2023-07-28T12:39:19;24.40;58.65
67641;SHT31;54434;50.096;20.082;2023-07-28T12:41:58;24.44;58.04
67641;SHT31;54434;50.096;20.082;2023-07-28T12:44:38;24.54;58.23
67641;SHT31;54434;50.096;20.082;2023-07-28T12:47:20;24.60;58.18
67641;SHT31;54434;50.096;20.082;2023-07-28T12:49:56;24.69;57.93
67641;SHT31;54434;50.096;20.082;2023-07-28T12:52:33;24.71;57.67
67641;SHT31;54434;50.096;20.082;2023-07-28T12:55:12;24.65;57.86
67641;SHT31;54434;50.096;20.082;2023-07-28T12:57:50;24.62;57.96
67641;SHT31;54434;50.096;20.082;2023-07-28T13:00:26;24.64;58.00
67641;SHT31;54434;50.096;20.082;2023-07-28T13:03:05;24.76;58.03
67641;SHT31;54434;50.096;20.082;2023-07-28T13:05:43;24.84;57.93
67641;SHT31;54434;50.096;20.082;2023-07-28T13:08:20;24.94;58.17
67641;SHT31;54434;50.096;20.082;2023-07-28T13:11:00;24.96;57.77
67641;SHT31;54434;50.096;20.082;2023-07-28T13:13:40;25.03;57.60
67641;SHT31;54434;50.096;20.082;2023-07-28T13:16:17;25.11;57.16
67641;SHT31;54434;50.096;20.082;2023-07-28T13:18:54;25.09;57.24
67641;SHT31;54434;50.096;20.082;2023-07-28T13:21:31;25.10;57.42
67641;SHT31;54434;50.096;20.082;2023-07-28T13:24:08;25.07;57.07
67641;SHT31;54434;50.096;20.082;2023-07-28T13:26:44;25.03;57.25
67641;SHT31;54434;50.096;20.082;2023-07-28T13:29:21;25.05;57.22
67641;SHT31;54434;50.096;20.082;2023-07-28T13:32:00;24.98;56.98
67641;SHT31;54434;50.096;20.082;2023-07-28T13:34:37;24.92;57.01
67641;SHT31;54434;50.096;20.082;2023-07-28T13:37:14;24.92;57.11
67641;SHT31;54434;50.096;20.082;2023-07-28T13:39:51;24.96;57.13
67641;SHT31;54434;50.096;20.082;2023-07-28T13:42:28;24.96;57.15
67641;SHT31;54434;50.096;20.082;2023-07-28T13:45:05;24.94;56.63
67641;SHT31;54434;50.096;20.082;2023-07-28T13:47:43;24.93;56.60
67641;SHT31;54434;50.096;20.082;2023-07-28T13:50:20;25.01;56.67
67641;SHT31;54434;50.096;20.082;2023-07-28T13:53:09;25.09;56.32
67641;SHT31;54434;50.096;20.082;2023-07-28T13:55:48;25.11;56.27
67641;SHT31;54434;50.096;20.082;2023-07-28T13:58:29;25.09;56.72
67641;SHT31;54434;50.096;20.082;2023-07-28T14:01:06;25.16;56.52
67641;SHT31;54434;50.096;20.082;2023-07-28T14:03:42;25.24;56.23
67641;SHT31;54434;50.096;20.082;2023-07-28T14:06:18;25.22;56.24
67641;SHT31;54434;50.096;20.082;2023-07-28T14:08:55;25.13;56.07
67641;SHT31;54434;50.096;20.082;2023-07-28T14:11:31;25.10;56.45
67641;SHT31;54434;50.096;20.082;2023-07-28T14:14:08;25.16;56.23
67641;SHT31;54434;50.096;20.082;2023-07-28T14:16:45;25.11;55.80
67641;SHT31;54434;50.096;20.082;2023-07-28T14:19:22;25.02;55.97
67641;SHT31;54434;50.096;20.082;2023-07-28T14:21:59;24.99;56.45
67641;SHT31;54434;50.096;20.082;2023-07-28T14:24:35;24.99;56.62
67641;SHT31;54434;50.096;20.082;2023-07-28T14:27:12;24.93;56.39
67641;SHT31;54434;50.096;20.082;2023-07-28T14:29:48;24.86;56.28
67641;SHT31;54434;50.096;20.082;2023-07-28T14:32:25;24.74;56.31
67641;SHT31;54434;50.096;20.082;2023-07-28T14:35:01;24.60;56.64
67641;SHT31;54434;50.096;20.082;2023-07-28T14:37:39;24.50;56.75
67641;SHT31;54434;50.096;20.082;2023-07-28T14:40:16;24.51;57.04
67641;SHT31;54434;50.096;20.082;2023-07-28T14:42:53;24.60;57.01
67641;SHT31;54434;50.096;20.082;2023-07-28T14:45:29;24.65;57.07
67641;SHT31;54434;50.096;20.082;2023-07-28T14:48:06;24.72;56.66
67641;SHT31;54434;50.096;20.082;2023-07-28T14:50:43;24.73;56.53
67641;SHT31;54434;50.096;20.082;2023-07-28T14:53:35;24.74;56.82
67641;SHT31;54434;50.096;20.082;2023-07-28T14:56:13;24.74;56.68
67641;SHT31;54434;50.096;20.082;2023-07-28T14:58:51;24.73;56.60
67641;SHT31;54434;50.096;20.082;2023-07-28T15:01:30;24.65;56.59
67641;SHT31;54434;50.096;20.082;2023-07-28T15:04:08;24.58;57.39
67641;SHT31;54434;50.096;20.082;2023-07-28T15:06:45;24.48;57.71
67641;SHT31;54434;50.096;20.082;2023-07-28T15:09:22;24.38;57.59
67641;SHT31;54434;50.096;20.082;2023-07-28T15:11:59;24.42;56.86
67641;SHT31;54434;50.096;20.082;2023-07-28T15:14:36;24.51;56.81
67641;SHT31;54434;50.096;20.082;2023-07-28T15:17:12;24.57;56.67
67641;SHT31;54434;50.096;20.082;2023-07-28T15:19:49;24.64;56.59
67641;SHT31;54434;50.096;20.082;2023-07-28T15:22:25;24.69;56.22
67641;SHT31;54434;50.096;20.082;2023-07-28T15:25:05;24.69;56.44
67641;SHT31;54434;50.096;20.082;2023-07-28T15:27:43;24.62;55.92
67641;SHT31;54434;50.096;20.082;2023-07-28T15:30:19;24.52;56.43
67641;SHT31;54434;50.096;20.082;2023-07-28T15:32:56;24.50;56.29
67641;SHT31;54434;50.096;20.082;2023-07-28T15:35:33;24.53;56.23
67641;SHT31;54434;50.096;20.082;2023-07-28T15:38:09;24.56;56.64
67641;SHT31;54434;50.096;20.082;2023-07-28T15:40:46;24.57;56.47
67641;SHT31;54434;50.096;20.082;2023-07-28T15:43:22;24.56;56.37
67641;SHT31;54434;50.096;20.082;2023-07-28T15:45:58;24.54;56.09
67641;SHT31;54434;50.096;20.082;2023-07-28T15:48:36;24.50;56.03
67641;SHT31;54434;50.096;20.082;2023-07-28T15:51:15;24.50;56.15
67641;SHT31;54434;50.096;20.082;2023-07-28T15:53:52;24.48;55.78
67641;SHT31;54434;50.096;20.082;2023-07-28T15:56:28;24.48;55.95
67641;SHT31;54434;50.096;20.082;2023-07-28T15:59:05;24.49;56.06
67641;SHT31;54434;50.096;20.082;2023-07-28T16:01:41;24.45;55.96
67641;SHT31;54434;50.096;20.082;2023-07-28T16:04:17;24.43;56.20
67641;SHT31;54434;50.096;20.082;2023-07-28T16:06:54;24.39;56.14
67641;SHT31;54434;50.096;20.082;2023-07-28T16:09:30;24.36;56.35
67641;SHT31;54434;50.096;20.082;2023-07-28T16:12:08;24.36;56.57
67641;SHT31;54434;50.096;20.082;2023-07-28T16:14:45;24.38;56.30
67641;SHT31;54434;50.096;20.082;2023-07-28T16:17:21;24.38;56.33
67641;SHT31;54434;50.096;20.082;2023-07-28T16:19:58;24.39;56.41
67641;SHT31;54434;50.096;20.082;2023-07-28T16:22:35;24.39;56.53
67641;SHT31;54434;50.096;20.082;2023-07-28T16:25:11;24.38;56.63